Time;durP1;ratioP1;P1;durP2;ratioP2;P2;SDS_P1;SDS_P2;PMS_P1;PMS_P2;Temp;Humidity;BMP_temperature;BMP_pressure;BME280_temperature;BME280_humidity;BME280_pressure;Samples;Min_cycle;Max_cycle;Signal;HPM_P1;HPM_P2
2021/03/05 00:00:39;;;;;;;1.10;0.70;;;4.10;81.50;;;;;;5013852;28;20084;-75
2021/03/05 00:03:06;;;;;;;1.85;0.70;;;4.10;81.50;;;;;;5013917;28;20046;-76
2021/03/05 00:05:35;;;;;;;2.15;1.08;;;4.30;81.60;;;;;;5013737;28;20128;-76
2021/03/05 00:08:01;;;;;;;1.65;0.63;;;4.20;81.50;;;;;;4995644;28;20045;-77
2021/03/05 00:10:28;;;;;;;2.83;1.08;;;4.20;81.50;;;;;;5013316;28;20447;-77
2021/03/05 00:12:55;;;;;;;1.92;0.90;;;4.20;81.60;;;;;;5013471;28;20077;-77
2021/03/05 00:15:22;;;;;;;3.63;1.30;;;4.20;81.60;;;;;;5013593;28;20038;-76
2021/03/05 00:17:48;;;;;;;2.78;1.27;;;4.10;81.60;;;;;;5013303;28;20084;-76
2021/03/05 00:20:16;;;;;;;2.38;1.02;;;4.20;81.70;;;;;;5012945;28;20046;-77
2021/03/05 00:22:42;;;;;;;1.73;0.90;;;4.10;81.70;;;;;;5013538;28;20103;-76
2021/03/05 00:25:09;;;;;;;2.47;1.13;;;4.10;81.70;;;;;;4995886;28;20054;-77
2021/03/05 00:27:35;;;;;;;2.72;1.27;;;4.10;81.80;;;;;;5013182;28;20038;-76
2021/03/05 00:30:02;;;;;;;2.58;1.27;;;4.10;81.90;;;;;;5013399;28;20473;-76
2021/03/05 00:32:27;;;;;;;2.40;1.20;;;4.10;81.90;;;;;;4995390;28;20120;-76
2021/03/05 00:34:53;;;;;;;2.80;1.30;;;4.10;82.00;;;;;;5013765;28;20089;-77
2021/03/05 00:37:19;;;;;;;2.40;1.17;;;4.00;82.10;;;;;;4995433;28;20038;-78
2021/03/05 00:39:45;;;;;;;1.83;1.20;;;4.00;82.20;;;;;;5012930;28;20046;-76
2021/03/05 00:42:11;;;;;;;2.22;1.20;;;4.00;82.20;;;;;;5012720;28;20103;-76
2021/03/05 00:44:37;;;;;;;2.60;1.50;;;4.00;82.20;;;;;;5013476;28;20046;-74
2021/03/05 00:47:03;;;;;;;1.80;1.15;;;4.00;82.20;;;;;;5012256;28;20104;-75
2021/03/05 00:49:28;;;;;;;1.77;1.08;;;4.00;82.20;;;;;;5012656;28;20049;-75
2021/03/05 00:51:54;;;;;;;2.05;1.23;;;4.00;82.20;;;;;;5012372;28;20521;-75
2021/03/05 00:54:21;;;;;;;2.25;1.10;;;4.00;82.30;;;;;;5013125;28;20030;-76
2021/03/05 00:56:46;;;;;;;1.40;0.93;;;4.00;82.30;;;;;;5012956;28;20129;-77
2021/03/05 00:59:12;;;;;;;3.50;1.38;;;4.00;82.20;;;;;;5012984;28;20117;-77
2021/03/05 01:01:38;;;;;;;1.95;1.05;;;4.00;82.30;;;;;;5012423;28;20034;-76
2021/03/05 01:04:04;;;;;;;1.95;1.00;;;3.90;82.20;;;;;;5012503;28;20034;-76
2021/03/05 01:06:30;;;;;;;1.92;1.00;;;3.90;82.30;;;;;;5012409;28;20516;-75
2021/03/05 01:08:56;;;;;;;2.00;1.00;;;3.90;82.40;;;;;;5012418;28;20049;-75
2021/03/05 01:11:21;;;;;;;1.55;1.05;;;3.80;82.50;;;;;;5012721;28;20038;-74
2021/03/05 01:13:47;;;;;;;1.75;1.10;;;3.70;82.60;;;;;;4994519;28;20045;-77
2021/03/05 01:16:13;;;;;;;3.03;1.05;;;3.70;82.80;;;;;;4994746;28;20050;-77
2021/03/05 01:18:39;;;;;;;2.45;1.30;;;3.60;82.90;;;;;;5012378;28;20369;-77
2021/03/05 01:21:05;;;;;;;1.80;1.17;;;3.50;83.00;;;;;;4994682;28;20041;-77
2021/03/05 01:23:32;;;;;;;2.25;1.10;;;3.40;83.10;;;;;;5012331;28;20492;-74
2021/03/05 01:25:58;;;;;;;2.05;0.90;;;3.40;83.20;;;;;;5012547;28;20038;-75
2021/03/05 01:28:24;;;;;;;2.38;1.00;;;3.40;83.30;;;;;;5012247;28;20049;-75
2021/03/05 01:30:50;;;;;;;2.45;1.20;;;3.30;83.40;;;;;;5012062;28;20145;-75
2021/03/05 01:33:16;;;;;;;1.08;0.80;;;3.30;83.40;;;;;;5012065;28;20077;-75
2021/03/05 01:35:42;;;;;;;1.67;0.80;;;3.20;83.50;;;;;;4994365;28;20068;-75
2021/03/05 01:38:07;;;;;;;1.50;0.88;;;3.20;83.60;;;;;;5011723;28;20121;-77
2021/03/05 01:40:37;;;;;;;1.13;0.82;;;3.20;83.70;;;;;;4994472;28;20054;-76
2021/03/05 01:43:07;;;;;;;1.33;0.73;;;3.10;83.90;;;;;;5011982;28;20049;-76
2021/03/05 01:45:34;;;;;;;1.55;0.77;;;3.00;83.90;;;;;;4994401;28;20042;-75
2021/03/05 01:48:05;;;;;;;1.38;0.80;;;3.00;84.00;;;;;;5011817;28;20132;-74
2021/03/05 01:50:36;;;;;;;1.42;0.65;;;2.80;84.00;;;;;;5011832;28;20089;-74
2021/03/05 01:53:05;;;;;;;3.45;0.82;;;2.80;84.10;;;;;;4994276;28;20046;-76
2021/03/05 01:55:31;;;;;;;0.90;0.60;;;2.70;84.10;;;;;;5011574;28;20053;-76
2021/03/05 01:57:57;;;;;;;1.38;0.60;;;2.70;84.20;;;;;;5011870;28;20392;-76
2021/03/05 02:00:43;;;;;;;0.73;0.55;;;2.70;84.30;;;;;;5011989;28;20038;-75
2021/03/05 02:03:09;;;;;;;1.75;0.80;;;2.70;84.40;;;;;;5011682;28;20070;-75
2021/03/05 02:05:39;;;;;;;1.30;0.65;;;2.60;84.40;;;;;;5011393;28;20157;-75
2021/03/05 02:08:07;;;;;;;2.72;0.63;;;2.60;84.50;;;;;;5011897;28;20046;-76
2021/03/05 02:10:33;;;;;;;1.13;0.70;;;2.50;84.50;;;;;;5011626;28;20041;-75
2021/03/05 02:12:58;;;;;;;1.00;0.70;;;2.50;84.50;;;;;;5011511;28;20053;-74
2021/03/05 02:15:24;;;;;;;1.95;0.98;;;2.50;84.60;;;;;;5011724;28;20048;-75
2021/03/05 02:18:13;;;;;;;1.63;0.70;;;2.40;84.60;;;;;;5011931;28;20088;-74
2021/03/05 02:21:01;;;;;;;0.77;0.68;;;2.40;84.70;;;;;;5011049;28;20034;-75
2021/03/05 02:23:46;;;;;;;1.23;0.75;;;2.30;84.70;;;;;;5011807;28;20045;-75
2021/03/05 02:26:52;;;;;;;1.10;0.70;;;2.30;84.80;;;;;;4993581;28;20462;-74
2021/03/05 02:29:54;;;;;;;1.45;0.77;;;2.20;84.80;;;;;;4997975;28;20045;-75
2021/03/05 02:32:29;;;;;;;3.08;1.05;;;2.10;84.80;;;;;;5011004;28;20060;-73
2021/03/05 02:34:56;;;;;;;1.40;0.57;;;2.10;84.90;;;;;;5010939;28;20057;-74
2021/03/05 02:37:25;;;;;;;1.20;0.70;;;2.10;84.90;;;;;;4993424;28;20076;-76
2021/03/05 02:40:08;;;;;;;1.35;0.82;;;2.00;84.90;;;;;;5010977;28;20049;-75
2021/03/05 02:42:48;;;;;;;1.75;0.90;;;2.00;85.00;;;;;;5011121;28;20495;-74
2021/03/05 02:45:18;;;;;;;1.70;0.90;;;1.90;85.10;;;;;;5011115;28;20045;-73
2021/03/05 02:47:48;;;;;;;1.38;0.73;;;1.80;85.00;;;;;;4993252;28;20385;-73
2021/03/05 02:50:17;;;;;;;2.17;0.85;;;1.90;85.20;;;;;;5014959;28;20048;-73
2021/03/05 02:52:45;;;;;;;1.00;0.52;;;1.90;85.20;;;;;;5014816;28;20048;-73
2021/03/05 02:55:12;;;;;;;1.10;0.60;;;1.80;85.20;;;;;;5014331;28;20112;-73
2021/03/05 02:57:44;;;;;;;0.75;0.50;;;1.80;85.20;;;;;;5014845;28;20084;-72
2021/03/05 03:00:11;;;;;;;1.17;0.77;;;1.80;86.00;;;;;;5014838;28;20046;-73
2021/03/05 03:02:39;;;;;;;1.42;0.77;;;1.80;85.40;;;;;;5014003;28;20042;-73
2021/03/05 03:05:05;;;;;;;0.85;0.70;;;1.70;85.40;;;;;;5014575;28;20080;-72
2021/03/05 03:07:33;;;;;;;1.27;0.73;;;1.70;85.40;;;;;;5014578;28;20113;-73
2021/03/05 03:09:59;;;;;;;0.90;0.65;;;1.70;85.50;;;;;;5014553;28;20558;-73
2021/03/05 03:12:25;;;;;;;1.38;0.88;;;1.70;85.60;;;;;;5013949;28;20077;-73
2021/03/05 03:14:51;;;;;;;1.25;0.75;;;1.60;85.60;;;;;;5013967;28;20103;-73
2021/03/05 03:17:17;;;;;;;0.98;0.60;;;1.50;85.60;;;;;;5014076;28;20492;-73
2021/03/05 03:19:47;;;;;;;1.77;0.80;;;1.50;85.60;;;;;;5014582;28;20077;-73
2021/03/05 03:22:13;;;;;;;0.85;0.55;;;1.50;85.60;;;;;;5013887;28;20042;-73
2021/03/05 03:24:39;;;;;;;1.08;0.75;;;1.50;85.70;;;;;;5013916;28;20508;-73
2021/03/05 03:27:05;;;;;;;1.77;0.80;;;1.40;85.70;;;;;;5014067;28;20562;-73
2021/03/05 03:29:31;;;;;;;1.30;0.70;;;1.40;85.70;;;;;;5014008;28;20065;-72
2021/03/05 03:31:56;;;;;;;1.50;0.70;;;1.40;85.80;;;;;;5014210;28;20045;-73
2021/03/05 03:34:22;;;;;;;1.75;0.75;;;1.40;85.70;;;;;;5013831;28;20088;-73
2021/03/05 03:36:52;;;;;;;1.77;0.88;;;1.30;85.70;;;;;;4996403;28;20495;-73
2021/03/05 03:39:18;;;;;;;0.90;0.55;;;1.30;85.80;;;;;;4995965;28;20112;-73
2021/03/05 03:41:44;;;;;;;1.30;0.63;;;1.30;85.80;;;;;;5013495;28;20503;-73
2021/03/05 03:44:12;;;;;;;0.98;0.60;;;1.30;85.80;;;;;;4996333;28;20494;-71
2021/03/05 03:46:48;;;;;;;2.33;0.80;;;1.30;85.90;;;;;;4994388;28;20033;-71
2021/03/05 03:49:24;;;;;;;1.08;0.50;;;1.20;85.80;;;;;;5013726;28;20480;-71
2021/03/05 03:51:56;;;;;;;1.38;0.68;;;1.20;85.90;;;;;;5014279;28;20038;-72
2021/03/05 03:54:21;;;;;;;;;;;1.20;85.90;;;;;;5014656;28;20042;-72
2021/03/05 03:56:51;;;;;;;0.80;0.40;;;1.20;85.90;;;;;;5013970;28;19920;-72
2021/03/05 03:59:18;;;;;;;0.75;0.55;;;1.10;85.80;;;;;;5013521;28;20061;-72
2021/03/05 04:01:46;;;;;;;0.80;0.60;;;1.10;85.70;;;;;;5012866;28;20042;-72
2021/03/05 04:04:14;;;;;;;1.30;0.55;;;1.10;85.70;;;;;;5013541;28;20046;-72
2021/03/05 04:06:40;;;;;;;0.70;0.50;;;1.10;85.80;;;;;;5013876;28;20042;-72
2021/03/05 04:09:08;;;;;;;1.63;0.50;;;1.10;85.80;;;;;;5012935;28;20048;-71
2021/03/05 04:11:34;;;;;;;0.50;0.30;;;1.00;85.70;;;;;;5013674;28;20093;-72
2021/03/05 04:14:02;;;;;;;1.42;0.52;;;1.00;85.70;;;;;;5013275;28;20566;-71
2021/03/05 04:16:27;;;;;;;0.80;0.50;;;1.00;85.70;;;;;;5013440;28;20120;-73
2021/03/05 04:18:53;;;;;;;0.30;0.30;;;1.00;85.60;;;;;;4994113;28;20504;-73
2021/03/05 04:21:22;;;;;;;0.73;0.60;;;0.90;85.60;;;;;;5013345;28;20042;-71
2021/03/05 04:23:48;;;;;;;0.85;0.55;;;0.90;85.60;;;;;;5013115;28;20038;-73
2021/03/05 04:26:13;;;;;;;1.00;0.45;;;0.90;85.60;;;;;;5013111;28;20049;-73
2021/03/05 04:28:39;;;;;;;0.30;0.30;;;0.90;85.60;;;;;;5013633;28;20088;-72
2021/03/05 04:31:05;;;;;;;0.52;0.40;;;0.80;85.60;;;;;;5013061;28;20054;-72
2021/03/05 04:33:30;;;;;;;1.05;0.50;;;0.80;85.60;;;;;;5013290;28;20499;-71
2021/03/05 04:35:56;;;;;;;0.50;0.50;;;0.80;85.60;;;;;;5013045;28;20046;-71
2021/03/05 04:38:22;;;;;;;0.50;0.32;;;0.80;85.60;;;;;;4995277;28;20444;-72
2021/03/05 04:40:48;;;;;;;0.55;0.47;;;0.80;85.60;;;;;;5012686;28;20038;-72
2021/03/05 04:43:14;;;;;;;1.05;0.60;;;0.70;85.50;;;;;;5012938;28;20038;-72
2021/03/05 04:45:40;;;;;;;1.08;0.60;;;0.80;85.60;;;;;;5012433;28;20072;-72
2021/03/05 04:48:06;;;;;;;0.85;0.50;;;0.70;85.60;;;;;;5013300;28;20101;-72
2021/03/05 04:50:32;;;;;;;0.65;0.45;;;0.70;85.50;;;;;;5012724;28;20076;-72
2021/03/05 04:52:58;;;;;;;1.05;0.30;;;0.60;85.50;;;;;;5012668;28;20041;-72
2021/03/05 04:55:23;;;;;;;1.45;0.60;;;0.70;85.60;;;;;;4994937;28;20484;-72
2021/03/05 04:57:49;;;;;;;1.35;0.52;;;0.60;85.60;;;;;;5013052;28;20046;-72
2021/03/05 05:00:15;;;;;;;1.17;0.68;;;0.60;85.60;;;;;;4995139;28;20056;-73
2021/03/05 05:02:41;;;;;;;1.02;0.73;;;0.60;85.60;;;;;;5012792;28;20034;-73
2021/03/05 05:05:07;;;;;;;0.90;0.30;;;0.60;85.60;;;;;;4995881;28;20042;-73
2021/03/05 05:07:32;;;;;;;0.77;0.60;;;0.60;85.60;;;;;;4995285;28;20128;-73
2021/03/05 05:09:58;;;;;;;0.40;0.35;;;0.60;85.70;;;;;;4995428;28;20038;-72
2021/03/05 05:12:24;;;;;;;0.93;0.50;;;0.60;85.60;;;;;;5011654;28;20120;-72
2021/03/05 05:14:50;;;;;;;1.10;0.52;;;0.50;85.60;;;;;;4995405;28;20405;-74
2021/03/05 05:17:16;;;;;;;1.95;0.60;;;0.50;85.70;;;;;;4995291;28;20073;-73
2021/03/05 05:19:41;;;;;;;1.02;0.60;;;0.50;85.60;;;;;;5012691;28;20046;-73
2021/03/05 05:22:07;;;;;;;0.55;0.30;;;0.40;85.60;;;;;;5012496;28;20439;-73
2021/03/05 05:24:33;;;;;;;1.20;0.50;;;0.50;85.80;;;;;;5013037;28;20539;-72
2021/03/05 05:26:59;;;;;;;0.75;0.50;;;0.40;85.70;;;;;;5012432;28;20440;-73
2021/03/05 05:29:24;;;;;;;1.73;0.60;;;0.40;85.70;;;;;;5012739;28;20045;-73
2021/03/05 05:31:50;;;;;;;0.85;0.40;;;0.40;85.70;;;;;;5012396;28;20076;-73
2021/03/05 05:34:16;;;;;;;0.88;0.50;;;0.40;85.70;;;;;;5012408;28;20198;-73
2021/03/05 05:36:41;;;;;;;0.63;0.50;;;0.30;85.60;;;;;;5012337;28;20072;-72
2021/03/05 05:39:07;;;;;;;0.90;0.50;;;0.30;85.60;;;;;;5012209;28;20038;-73
2021/03/05 05:41:33;;;;;;;0.80;0.45;;;0.30;85.60;;;;;;5012350;28;20114;-73
2021/03/05 05:43:59;;;;;;;0.70;0.50;;;0.30;85.60;;;;;;5012562;28;20067;-73
2021/03/05 05:46:26;;;;;;;0.70;0.40;;;0.30;85.60;;;;;;4994447;28;20528;-72
2021/03/05 05:48:52;;;;;;;0.30;0.20;;;0.30;85.60;;;;;;5012140;28;20046;-72
2021/03/05 05:51:22;;;;;;;2.75;0.55;;;0.30;85.70;;;;;;5010180;28;20041;-73
2021/03/05 05:53:48;;;;;;;0.63;0.47;;;0.20;85.70;;;;;;5011936;28;20057;-72
2021/03/05 05:56:16;;;;;;;0.75;0.50;;;0.20;85.70;;;;;;5011770;28;20057;-72
2021/03/05 05:58:43;;;;;;;0.63;0.30;;;0.20;85.70;;;;;;5011821;28;20056;-72
2021/03/05 06:01:09;;;;;;;0.35;0.30;;;0.20;86.40;;;;;;5011908;28;20107;-72
2021/03/05 06:03:37;;;;;;;0.30;0.30;;;0.10;85.70;;;;;;4994610;28;20034;-72
2021/03/05 06:06:03;;;;;;;0.45;0.30;;;0.10;85.70;;;;;;5012310;28;20042;-72
2021/03/05 06:08:29;;;;;;;0.47;0.45;;;0.10;85.70;;;;;;5011561;28;20559;-73
2021/03/05 06:10:55;;;;;;;0.28;0.28;;;0.00;85.60;;;;;;5011577;28;20459;-73
2021/03/05 06:13:25;;;;;;;0.75;0.57;;;0.10;85.70;;;;;;5011813;28;20057;-73
2021/03/05 06:16:20;;;;;;;0.57;0.40;;;0.00;85.60;;;;;;5011922;28;20522;-73
2021/03/05 06:18:46;;;;;;;0.70;0.45;;;0.10;85.70;;;;;;5012257;28;20046;-73
2021/03/05 06:21:12;;;;;;;0.40;0.30;;;0.00;85.60;;;;;;5011627;28;20369;-72
2021/03/05 06:23:56;;;;;;;2.20;0.55;;;0.00;85.60;;;;;;4995241;28;20061;-72
2021/03/05 06:26:22;;;;;;;0.10;0.10;;;0.10;85.60;;;;;;5013644;28;20038;-73
2021/03/05 06:29:05;;;;;;;0.73;0.43;;;0.00;85.40;;;;;;5015112;28;20038;-72
2021/03/05 06:31:32;;;;;;;0.47;0.35;;;0.00;86.00;;;;;;5014927;28;20046;-72
2021/03/05 06:34:00;;;;;;;0.90;0.30;;;0.00;85.30;;;;;;5014769;28;20392;-73
2021/03/05 06:36:26;;;;;;;1.50;0.38;;;0.10;85.30;;;;;;5014908;28;20049;-73
2021/03/05 06:38:52;;;;;;;0.28;0.20;;;0.10;85.30;;;;;;4997166;28;20041;-73
2021/03/05 06:41:24;;;;;;;0.40;0.30;;;0.10;85.20;;;;;;5014597;28;20038;-72
2021/03/05 06:43:54;;;;;;;0.90;0.50;;;0.10;85.00;;;;;;5014624;28;20045;-73
2021/03/05 06:46:38;;;;;;;0.65;0.45;;;0.20;85.00;;;;;;5014643;28;20077;-73
2021/03/05 06:49:13;;;;;;;0.20;0.20;;;0.20;84.90;;;;;;5015114;28;20041;-73
2021/03/05 06:51:40;;;;;;;0.52;0.30;;;0.30;84.80;;;;;;5014791;28;20042;-72
2021/03/05 06:54:12;;;;;;;0.47;0.30;;;0.30;84.60;;;;;;4980786;28;20443;-73
2021/03/05 06:56:41;;;;;;;0.20;0.20;;;0.40;84.50;;;;;;5015238;28;20030;-72
2021/03/05 06:59:14;;;;;;;0.32;0.30;;;0.40;84.40;;;;;;5014571;28;20396;-72
2021/03/05 07:01:57;;;;;;;1.05;0.40;;;0.50;84.30;;;;;;5014515;28;20381;-72
2021/03/05 07:04:26;;;;;;;0.32;0.30;;;0.50;84.10;;;;;;5014555;28;20049;-72
2021/03/05 07:07:09;;;;;;;0.82;0.30;;;0.60;83.90;;;;;;5014346;28;20038;-72
2021/03/05 07:09:41;;;;;;;0.88;0.45;;;0.70;83.90;;;;;;5014199;28;20057;-72
2021/03/05 07:12:11;;;;;;;0.40;0.38;;;0.70;83.70;;;;;;5013984;28;20042;-72
2021/03/05 07:14:40;;;;;;;0.65;0.38;;;0.70;83.50;;;;;;5014007;28;20037;-74
2021/03/05 07:17:07;;;;;;;0.60;0.28;;;0.80;83.40;;;;;;5013833;28;20069;-73
2021/03/05 07:19:35;;;;;;;0.82;0.40;;;0.90;83.30;;;;;;5014353;28;20042;-73
2021/03/05 07:22:01;;;;;;;0.50;0.30;;;0.90;83.10;;;;;;5013569;28;20068;-73
2021/03/05 07:24:29;;;;;;;0.35;0.20;;;1.00;83.00;;;;;;5013868;28;20049;-73
2021/03/05 07:27:00;;;;;;;0.57;0.40;;;1.10;82.80;;;;;;5013851;28;20034;-72
2021/03/05 07:29:43;;;;;;;0.90;0.35;;;1.20;82.70;;;;;;4997237;28;20088;-73
2021/03/05 07:32:11;;;;;;;0.40;0.40;;;1.20;82.50;;;;;;5014083;28;20030;-73
2021/03/05 07:34:56;;;;;;;0.32;0.22;;;1.30;82.40;;;;;;5013524;28;20042;-73
2021/03/05 07:37:29;;;;;;;1.02;0.38;;;1.40;82.20;;;;;;5014210;28;20072;-74
2021/03/05 07:40:00;;;;;;;0.43;0.38;;;1.50;82.00;;;;;;5013726;28;20042;-74
2021/03/05 07:42:26;;;;;;;1.53;0.47;;;1.60;81.90;;;;;;5014223;28;20045;-74
2021/03/05 07:44:52;;;;;;;0.38;0.38;;;1.60;81.70;;;;;;5014045;28;20037;-74
2021/03/05 07:47:19;;;;;;;0.73;0.45;;;1.70;81.60;;;;;;5013979;28;20045;-75
2021/03/05 07:49:45;;;;;;;0.95;0.40;;;1.80;81.50;;;;;;5013852;28;20400;-74
2021/03/05 07:52:12;;;;;;;0.40;0.40;;;1.80;81.30;;;;;;5014214;28;20115;-74
2021/03/05 07:54:44;;;;;;;1.08;0.43;;;1.90;81.20;;;;;;5014276;28;20052;-75
2021/03/05 07:57:43;;;;;;;1.08;0.55;;;2.00;81.10;;;;;;4996140;28;20048;-76
2021/03/05 08:00:09;;;;;;;0.57;0.25;;;2.10;81.10;;;;;;4996293;28;20045;-75
2021/03/05 08:02:53;;;;;;;0.50;0.32;;;2.20;80.90;;;;;;5013679;28;20061;-75
2021/03/05 08:05:34;;;;;;;0.68;0.40;;;2.30;80.80;;;;;;5013744;28;20042;-73
2021/03/05 08:08:10;;;;;;;0.30;0.30;;;2.50;81.40;;;;;;5013836;28;20046;-76
2021/03/05 08:10:37;;;;;;;0.73;0.60;;;2.50;80.70;;;;;;4996195;28;20050;-76
2021/03/05 08:13:03;;;;;;;0.68;0.40;;;2.50;80.50;;;;;;5013560;28;20118;-76
2021/03/05 08:15:29;;;;;;;1.40;0.55;;;2.70;80.40;;;;;;5013299;28;20046;-76
2021/03/05 08:17:55;;;;;;;0.95;0.47;;;2.90;80.40;;;;;;5013259;28;20479;-76
2021/03/05 08:20:47;;;;;;;0.50;0.30;;;2.90;80.30;;;;;;5013488;28;20400;-76
2021/03/05 08:23:15;;;;;;;;;;;3.10;80.20;;;;;;5000638;28;20042;-76
2021/03/05 08:25:49;;;;;;;0.40;0.40;;;3.00;80.00;;;;;;4995876;28;19913;-76
2021/03/05 08:28:36;;;;;;;0.68;0.43;;;3.10;80.00;;;;;;5013149;28;20100;-75
2021/03/05 08:31:03;;;;;;;1.23;0.50;;;3.20;79.90;;;;;;4996051;28;20038;-74
2021/03/05 08:33:33;;;;;;;0.77;0.40;;;3.20;79.80;;;;;;5012578;28;20058;-75
2021/03/05 08:35:59;;;;;;;0.98;0.40;;;3.30;79.80;;;;;;4996247;28;20050;-72
2021/03/05 08:38:35;;;;;;;0.38;0.22;;;3.30;79.80;;;;;;5013110;28;20045;-75
2021/03/05 08:41:04;;;;;;;0.40;0.30;;;3.40;79.60;;;;;;5013090;28;20042;-75
2021/03/05 08:43:32;;;;;;;0.70;0.38;;;3.40;79.60;;;;;;4995384;28;20044;-74
2021/03/05 08:46:03;;;;;;;0.80;0.30;;;3.50;79.60;;;;;;5012635;28;20090;-73
2021/03/05 08:48:33;;;;;;;0.40;0.20;;;3.50;79.60;;;;;;5012593;28;20056;-72
2021/03/05 08:51:17;;;;;;;0.95;0.30;;;3.50;79.60;;;;;;5012384;28;20042;-71
2021/03/05 08:53:45;;;;;;;1.15;0.30;;;3.60;80.20;;;;;;5012569;28;20180;-72
2021/03/05 08:56:17;;;;;;;0.50;0.20;;;3.60;80.00;;;;;;5012657;28;20160;-73
2021/03/05 08:58:43;;;;;;;0.55;0.20;;;3.60;79.30;;;;;;5012747;28;20034;-73
2021/03/05 09:01:30;;;;;;;0.40;0.20;;;3.70;79.30;;;;;;4995021;28;20072;-72
2021/03/05 09:04:16;;;;;;;0.20;0.20;;;3.70;79.20;;;;;;5012669;28;20496;-72
2021/03/05 09:06:58;;;;;;;0.65;0.25;;;3.70;79.00;;;;;;5011448;28;20614;-72
2021/03/05 09:09:27;;;;;;;0.30;0.20;;;3.80;79.10;;;;;;5013153;28;20041;-74
2021/03/05 09:12:09;;;;;;;0.68;0.20;;;3.90;79.00;;;;;;4994976;28;20045;-75
2021/03/05 09:14:35;;;;;;;0.95;0.40;;;3.90;78.70;;;;;;5012496;28;20037;-74
2021/03/05 09:17:04;;;;;;;0.38;0.20;;;3.90;78.60;;;;;;4995159;28;20038;-75
2021/03/05 09:19:32;;;;;;;0.10;0.10;;;3.90;78.60;;;;;;5012282;28;20038;-74
2021/03/05 09:22:14;;;;;;;0.70;0.35;;;3.90;78.40;;;;;;5012110;28;20119;-72
2021/03/05 09:25:02;;;;;;;2.33;0.40;;;4.10;78.30;;;;;;5012300;28;20037;-73
2021/03/05 09:27:33;;;;;;;0.13;0.13;;;4.00;78.20;;;;;;5010752;28;20068;-74
2021/03/05 09:30:11;;;;;;;0.28;0.15;;;4.00;78.10;;;;;;5012157;28;20048;-74
2021/03/05 09:32:46;;;;;;;0.20;0.15;;;4.10;78.10;;;;;;4994550;28;20408;-73
2021/03/05 09:35:22;;;;;;;1.20;0.40;;;4.20;78.00;;;;;;4994518;28;20046;-74
2021/03/05 09:37:48;;;;;;;0.20;0.13;;;4.20;77.90;;;;;;4994931;28;20103;-73
2021/03/05 09:40:14;;;;;;;0.40;0.20;;;4.20;77.70;;;;;;5012036;28;20037;-73
2021/03/05 09:42:52;;;;;;;0.73;0.20;;;4.30;77.60;;;;;;4994165;28;20395;-72
2021/03/05 09:45:32;;;;;;;0.10;0.10;;;4.30;77.40;;;;;;5012395;28;20046;-74
2021/03/05 09:47:58;;;;;;;0.32;0.20;;;4.50;77.30;;;;;;5011855;28;20038;-72
2021/03/05 09:50:26;;;;;;;0.10;0.10;;;4.40;77.20;;;;;;5011705;28;20451;-72
2021/03/05 09:52:53;;;;;;;0.22;0.15;;;4.40;77.10;;;;;;4993969;28;20046;-72
2021/03/05 09:55:31;;;;;;;0.85;0.20;;;4.40;77.00;;;;;;5011551;28;20451;-73
2021/03/05 09:58:16;;;;;;;0.10;0.10;;;4.50;76.80;;;;;;4993460;28;20088;-71
2021/03/05 10:00:42;;;;;;;0.52;0.20;;;4.60;76.70;;;;;;5011733;28;20061;-75
2021/03/05 10:03:10;;;;;;;0.35;0.10;;;4.60;76.50;;;;;;5011789;28;20500;-74
2021/03/05 10:05:38;;;;;;;0.30;0.28;;;4.60;76.30;;;;;;4994289;28;20056;-73
2021/03/05 10:08:15;;;;;;;0.82;0.30;;;4.70;76.20;;;;;;5012356;28;20124;-72
2021/03/05 10:11:08;;;;;;;0.82;0.25;;;4.80;76.00;;;;;;4994238;28;20518;-73
2021/03/05 10:13:58;;;;;;;0.40;0.30;;;4.70;75.80;;;;;;4994229;28;20049;-73
2021/03/05 10:16:32;;;;;;;0.40;0.20;;;4.80;75.60;;;;;;5012150;28;20038;-72
2021/03/05 10:19:07;;;;;;;0.20;0.20;;;4.90;75.50;;;;;;5012281;28;20587;-72
2021/03/05 10:21:35;;;;;;;0.30;0.20;;;4.90;75.20;;;;;;5011780;28;20065;-73
2021/03/05 10:24:10;;;;;;;0.40;0.20;;;5.00;75.10;;;;;;4994470;28;20049;-73
2021/03/05 10:26:37;;;;;;;0.47;0.10;;;5.00;75.00;;;;;;5011652;28;20046;-76
2021/03/05 10:29:06;;;;;;;0.40;0.10;;;5.10;74.90;;;;;;4978215;28;20041;-74
2021/03/05 10:31:45;;;;;;;1.10;0.20;;;5.10;74.60;;;;;;5011720;28;20042;-76
2021/03/05 10:34:20;;;;;;;0.35;0.10;;;5.20;74.40;;;;;;5011785;28;20074;-72
2021/03/05 10:36:46;;;;;;;0.13;0.10;;;5.30;74.30;;;;;;4992518;28;20072;-72
2021/03/05 10:39:12;;;;;;;0.10;0.10;;;5.30;74.10;;;;;;4993670;28;20476;-72
2021/03/05 10:41:37;;;;;;;0.10;0.10;;;5.40;74.60;;;;;;5011035;28;20045;-73
2021/03/05 10:44:03;;;;;;;0.15;0.10;;;5.50;73.80;;;;;;4993904;28;20042;-73
2021/03/05 10:46:29;;;;;;;0.10;0.10;;;5.50;73.60;;;;;;4993948;28;20125;-72
2021/03/05 10:48:55;;;;;;;0.60;0.20;;;5.70;73.40;;;;;;5011786;28;20122;-73
2021/03/05 10:51:20;;;;;;;0.38;0.22;;;5.70;73.10;;;;;;5011458;28;20050;-72
2021/03/05 10:53:46;;;;;;;0.20;0.20;;;5.90;73.00;;;;;;5009526;28;20053;-74
2021/03/05 10:56:12;;;;;;;0.63;0.10;;;5.70;72.60;;;;;;5011218;28;20046;-69
2021/03/05 10:58:38;;;;;;;0.10;0.10;;;5.80;72.50;;;;;;5011100;28;20492;-70
2021/03/05 11:01:03;;;;;;;0.35;0.20;;;5.90;72.40;;;;;;5010837;28;20103;-70
2021/03/05 11:03:29;;;;;;;0.10;0.10;;;6.00;72.20;;;;;;4993390;28;20042;-70
2021/03/05 11:05:55;;;;;;;0.17;0.17;;;6.10;71.90;;;;;;5010815;28;20164;-70
2021/03/05 11:08:20;;;;;;;0.47;0.20;;;6.10;71.60;;;;;;5011193;28;20049;-70
2021/03/05 11:10:47;;;;;;;0.52;0.20;;;6.20;71.40;;;;;;5011933;28;20050;-70
2021/03/05 11:13:13;;;;;;;0.25;0.10;;;6.30;71.20;;;;;;5014203;28;20133;-70
2021/03/05 11:15:39;;;;;;;0.10;0.10;;;6.30;71.00;;;;;;5013942;28;20165;-70
2021/03/05 11:18:05;;;;;;;0.10;0.10;;;6.40;70.90;;;;;;5014195;28;20576;-70
2021/03/05 11:20:30;;;;;;;0.20;0.20;;;6.50;70.60;;;;;;5014075;28;20069;-69
2021/03/05 11:22:56;;;;;;;0.05;0.05;;;6.50;70.40;;;;;;5014048;28;20068;-69
2021/03/05 11:25:22;;;;;;;0.10;0.10;;;6.50;70.10;;;;;;4995800;28;20071;-69
2021/03/05 11:27:48;;;;;;;0.45;0.20;;;6.50;70.00;;;;;;5013377;28;20041;-68
2021/03/05 11:30:14;;;;;;;0.15;0.10;;;6.50;69.90;;;;;;5012887;28;20042;-69
2021/03/05 11:32:40;;;;;;;0.32;0.10;;;6.60;69.70;;;;;;5013784;28;20145;-71
2021/03/05 11:35:06;;;;;;;0.10;0.10;;;6.70;69.50;;;;;;5011534;28;20045;-70
2021/03/05 11:37:32;;;;;;;0.10;0.10;;;6.80;69.30;;;;;;4995440;28;20049;-71
2021/03/05 11:39:57;;;;;;;0.17;0.10;;;6.80;69.00;;;;;;5013813;28;20044;-71
2021/03/05 11:42:25;;;;;;;0.10;0.10;;;6.90;68.70;;;;;;5013860;28;20451;-71
2021/03/05 11:44:51;;;;;;;0.10;0.10;;;6.90;68.60;;;;;;5014195;28;20510;-71
2021/03/05 11:47:17;;;;;;;0.43;0.20;;;6.90;68.50;;;;;;5013797;28;20129;-71
2021/03/05 11:49:43;;;;;;;0.10;0.10;;;6.90;68.30;;;;;;5014084;28;20077;-69
2021/03/05 11:52:09;;;;;;;0.38;0.30;;;7.00;68.10;;;;;;5013971;28;20045;-68
2021/03/05 11:54:35;;;;;;;0.32;0.20;;;7.10;68.00;;;;;;5013715;28;20401;-69
2021/03/05 11:57:00;;;;;;;0.20;0.13;;;7.10;67.80;;;;;;5013829;28;20061;-69
2021/03/05 11:59:26;;;;;;;0.45;0.15;;;7.10;67.60;;;;;;4996141;28;20426;-69
2021/03/05 12:01:52;;;;;;;0.20;0.20;;;7.20;67.70;;;;;;5014112;28;20037;-69
2021/03/05 12:04:18;;;;;;;0.22;0.17;;;7.30;67.30;;;;;;4996118;28;20145;-71
2021/03/05 12:06:43;;;;;;;0.20;0.10;;;7.40;67.10;;;;;;4996009;28;20400;-71
2021/03/05 12:09:09;;;;;;;0.40;0.20;;;7.50;66.90;;;;;;5013317;28;20042;-70
2021/03/05 12:11:36;;;;;;;0.20;0.20;;;7.60;66.50;;;;;;5013405;28;20404;-69
2021/03/05 12:14:02;;;;;;;0.20;0.17;;;7.60;66.30;;;;;;5013689;28;20121;-70
2021/03/05 12:16:27;;;;;;;0.00;0.00;;;7.60;66.20;;;;;;5013582;28;20137;-69
2021/03/05 12:18:53;;;;;;;0.20;0.10;;;7.60;66.20;;;;;;5013986;28;20397;-71
2021/03/05 12:21:19;;;;;;;0.10;0.10;;;7.60;66.30;;;;;;5012860;28;20042;-71
2021/03/05 12:23:45;;;;;;;0.10;0.10;;;7.70;66.20;;;;;;5013388;28;20105;-71
2021/03/05 12:26:10;;;;;;;0.10;0.10;;;7.70;65.90;;;;;;5013402;28;20061;-69
2021/03/05 12:28:36;;;;;;;0.10;0.10;;;7.70;65.70;;;;;;5012895;28;20042;-69
2021/03/05 12:31:02;;;;;;;0.10;0.10;;;7.70;65.70;;;;;;5013385;28;20488;-71
2021/03/05 12:33:28;;;;;;;0.15;0.10;;;7.60;65.70;;;;;;5013074;28;20045;-71
2021/03/05 12:35:53;;;;;;;0.38;0.10;;;7.80;65.70;;;;;;5013006;28;20408;-71
2021/03/05 12:38:19;;;;;;;0.10;0.10;;;7.90;65.60;;;;;;5013049;28;20064;-71
2021/03/05 12:40:45;;;;;;;0.28;0.20;;;7.90;65.30;;;;;;5013084;28;20488;-70
2021/03/05 12:43:10;;;;;;;0.22;0.10;;;8.00;65.10;;;;;;5013260;28;20045;-68
2021/03/05 12:45:36;;;;;;;0.10;0.10;;;8.10;64.90;;;;;;4995511;28;20049;-71
2021/03/05 12:48:03;;;;;;;0.10;0.10;;;8.20;64.60;;;;;;4995482;28;20140;-69
2021/03/05 12:50:29;;;;;;;0.25;0.10;;;8.20;64.40;;;;;;5013179;28;20511;-71
2021/03/05 12:52:55;;;;;;;0.20;0.20;;;8.20;64.50;;;;;;5013061;28;20042;-71
2021/03/05 12:55:21;;;;;;;0.10;0.10;;;8.30;64.30;;;;;;5013062;28;20049;-71
2021/03/05 12:57:47;;;;;;;0.08;0.08;;;8.40;64.30;;;;;;5012798;28;20500;-71
2021/03/05 13:00:13;;;;;;;0.22;0.10;;;8.50;64.00;;;;;;5012972;28;20044;-71
2021/03/05 13:02:39;;;;;;;0.20;0.20;;;8.60;63.70;;;;;;5013103;28;20046;-70
2021/03/05 13:05:05;;;;;;;0.20;0.10;;;8.80;63.70;;;;;;5013065;28;20126;-70
2021/03/05 13:07:31;;;;;;;0.13;0.13;;;8.80;63.40;;;;;;5013621;28;20143;-68